Time;durP1;ratioP1;P1;durP2;ratioP2;P2;SDS_P1;SDS_P2;PMS_P1;PMS_P2;Temp;Humidity;BMP_temperature;BMP_pressure;BME280_temperature;BME280_humidity;BME280_pressure;Samples;Min_cycle;Max_cycle;Signal;HPM_P1;HPM_P2
2023/01/30 00:00:24;;;;;;;12.90;5.28;;;7.10;99.90;;;;;;5053160;28;20461;-71
2023/01/30 00:02:49;;;;;;;12.45;4.65;;;7.10;99.90;;;;;;5053198;28;20037;-72
2023/01/30 00:05:15;;;;;;;11.43;4.63;;;7.00;99.90;;;;;;5053400;28;20398;-72
2023/01/30 00:07:41;;;;;;;12.48;3.90;;;7.10;99.90;;;;;;5053629;28;20103;-71
2023/01/30 00:10:07;;;;;;;16.02;5.03;;;7.10;99.90;;;;;;5035692;28;20049;-74
2023/01/30 00:12:33;;;;;;;10.73;4.10;;;7.10;99.90;;;;;;5045716;28;20513;-71
2023/01/30 00:14:58;;;;;;;15.65;4.60;;;7.10;99.90;;;;;;5015700;28;20045;-71
2023/01/30 00:17:24;;;;;;;12.90;4.40;;;7.10;99.90;;;;;;5032834;28;20033;-71
2023/01/30 00:19:49;;;;;;;15.25;5.10;;;7.10;99.90;;;;;;5032636;28;20044;-71
2023/01/30 00:22:15;;;;;;;15.95;4.57;;;7.00;99.90;;;;;;5032062;28;20037;-70
2023/01/30 00:24:41;;;;;;;11.15;5.20;;;7.00;99.90;;;;;;5032042;28;20060;-71
2023/01/30 00:27:06;;;;;;;16.15;4.93;;;7.00;99.90;;;;;;5016433;28;20099;-70
2023/01/30 00:29:32;;;;;;;13.55;5.15;;;7.00;99.90;;;;;;5031201;28;20037;-70
2023/01/30 00:31:57;;;;;;;14.82;6.18;;;6.90;99.90;;;;;;5016277;28;20041;-70
2023/01/30 00:34:23;;;;;;;14.02;4.75;;;6.90;99.90;;;;;;5031804;28;20425;-69
2023/01/30 00:36:49;;;;;;;12.32;5.55;;;6.90;99.90;;;;;;5031274;28;20054;-69
2023/01/30 00:39:14;;;;;;;18.17;5.60;;;6.90;99.90;;;;;;5033362;28;20045;-68
2023/01/30 00:47:08;;;;;;;16.05;5.38;;;6.90;99.90;;;;;;5032383;28;20049;-68
2023/01/30 00:49:36;;;;;;;13.02;4.95;;;6.80;99.90;;;;;;5031653;28;20041;-68
2023/01/30 00:52:02;;;;;;;13.90;5.38;;;6.80;99.90;;;;;;5032763;28;20037;-68
2023/01/30 00:54:28;;;;;;;13.18;5.70;;;6.90;99.90;;;;;;5031432;28;20597;-69
2023/01/30 00:56:54;;;;;;;15.00;5.80;;;6.80;99.90;;;;;;5032279;28;20037;-69
2023/01/30 00:59:19;;;;;;;17.00;5.78;;;6.80;99.90;;;;;;5031411;28;20037;-68
2023/01/30 01:01:45;;;;;;;15.60;5.85;;;6.80;99.90;;;;;;5032685;28;20041;-68
2023/01/30 01:04:11;;;;;;;13.65;5.72;;;6.90;99.90;;;;;;5032395;28;20037;-67
2023/01/30 01:06:37;;;;;;;14.40;5.57;;;6.80;99.90;;;;;;5031303;28;20052;-67
2023/01/30 01:09:03;;;;;;;14.38;5.70;;;6.90;99.90;;;;;;5031902;28;20500;-67
2023/01/30 01:11:29;;;;;;;14.25;5.40;;;6.80;99.90;;;;;;5030567;28;20133;-68
2023/01/30 01:13:57;;;;;;;16.08;6.00;;;6.80;99.90;;;;;;5031884;28;20481;-66
2023/01/30 01:16:23;;;;;;;15.82;5.70;;;6.80;99.90;;;;;;5032027;28;20045;-67
2023/01/30 01:18:50;;;;;;;17.08;6.10;;;6.90;99.90;;;;;;5031659;28;20041;-67
2023/01/30 01:21:17;;;;;;;18.52;6.50;;;6.90;99.90;;;;;;5031600;28;20080;-68
2023/01/30 01:23:43;;;;;;;17.00;6.72;;;6.90;99.90;;;;;;5031033;28;20053;-67
2023/01/30 01:26:09;;;;;;;16.67;6.68;;;6.90;99.90;;;;;;5030844;28;20053;-67
2023/01/30 01:28:35;;;;;;;15.60;5.97;;;6.90;99.90;;;;;;5030881;28;20045;-67
2023/01/30 01:31:07;;;;;;;16.48;7.00;;;6.90;99.90;;;;;;5034332;28;20056;-67
2023/01/30 01:33:33;;;;;;;18.33;6.03;;;6.90;99.90;;;;;;5033600;28;20055;-67
2023/01/30 01:35:58;;;;;;;15.13;5.97;;;6.90;99.90;;;;;;5050913;28;20482;-69
2023/01/30 01:38:24;;;;;;;16.48;6.05;;;6.90;99.90;;;;;;5051436;28;20436;-67
2023/01/30 01:41:02;;;;;;;22.10;8.27;;;6.90;99.90;;;;;;5033312;28;20428;-67
2023/01/30 01:44:00;;;;;;;19.27;7.68;;;7.00;99.90;;;;;;5051024;28;20044;-67
2023/01/30 01:46:51;;;;;;;19.02;6.70;;;7.00;99.90;;;;;;5049122;28;20051;-68
2023/01/30 01:49:23;;;;;;;21.02;7.25;;;7.00;99.90;;;;;;5051224;28;20051;-69
2023/01/30 01:52:02;;;;;;;28.20;7.40;;;7.00;99.90;;;;;;5039287;28;20045;-70
2023/01/30 01:54:38;;;;;;;25.92;7.07;;;7.00;99.90;;;;;;5030962;28;20029;-71
2023/01/30 01:57:19;;;;;;;22.25;6.93;;;7.00;99.90;;;;;;5031269;28;20038;-69
2023/01/30 01:59:50;;;;;;;19.63;6.40;;;7.00;99.90;;;;;;5030693;28;20049;-68
2023/01/30 02:02:16;;;;;;;18.85;5.68;;;7.10;99.90;;;;;;5030393;28;20044;-69
2023/01/30 02:05:03;;;;;;;21.88;7.53;;;7.00;99.90;;;;;;5030305;28;20056;-69
2023/01/30 02:07:53;;;;;;;16.50;6.30;;;7.10;99.90;;;;;;5029979;28;20072;-68
2023/01/30 02:10:57;;;;;;;20.10;6.20;;;7.10;99.90;;;;;;5032185;28;20049;-70
2023/01/30 02:13:23;;;;;;;19.00;6.38;;;7.10;99.90;;;;;;5014708;28;20045;-69
2023/01/30 02:15:50;;;;;;;27.08;6.50;;;7.10;99.90;;;;;;5013381;28;20502;-68
2023/01/30 02:18:17;;;;;;;20.85;6.18;;;7.10;99.90;;;;;;5031172;28;20386;-69
2023/01/30 02:21:11;;;;;;;23.77;6.18;;;7.20;99.90;;;;;;5013768;28;20517;-69
2023/01/30 02:24:00;;;;;;;27.42;7.05;;;7.20;99.90;;;;;;5029957;28;20383;-69
2023/01/30 02:26:57;;;;;;;18.52;5.22;;;7.20;99.90;;;;;;5014071;28;20037;-67
2023/01/30 02:29:22;;;;;;;19.67;5.75;;;7.20;99.90;;;;;;5030216;28;20140;-69
2023/01/30 02:32:16;;;;;;;32.67;7.97;;;7.20;99.90;;;;;;5030142;28;20120;-68
2023/01/30 02:35:03;;;;;;;25.42;6.80;;;7.30;99.90;;;;;;5031356;28;20037;-68
2023/01/30 02:37:48;;;;;;;16.75;5.28;;;7.20;99.90;;;;;;5029509;28;20044;-68
2023/01/30 02:40:29;;;;;;;18.42;5.43;;;7.20;99.90;;;;;;5031758;28;20120;-68
2023/01/30 02:43:20;;;;;;;27.33;6.88;;;7.20;99.90;;;;;;5030311;28;20382;-68
2023/01/30 02:45:59;;;;;;;18.13;6.22;;;7.20;99.90;;;;;;5030402;28;20041;-68
2023/01/30 02:48:58;;;;;;;19.73;6.00;;;7.20;99.90;;;;;;5030143;28;20087;-69
2023/01/30 02:51:36;;;;;;;23.85;6.80;;;7.20;99.90;;;;;;5028124;28;20360;-67
2023/01/30 02:54:05;;;;;;;18.33;4.60;;;7.20;99.90;;;;;;5030758;28;20042;-68
2023/01/30 02:56:43;;;;;;;16.17;4.45;;;7.20;99.90;;;;;;5030517;28;20552;-68
2023/01/30 02:59:09;;;;;;;18.60;6.32;;;7.10;99.90;;;;;;5037161;28;20498;-68
2023/01/30 03:01:48;;;;;;;13.10;4.93;;;7.10;99.90;;;;;;5055062;28;20048;-68
2023/01/30 03:04:34;;;;;;;28.30;5.90;;;7.20;99.90;;;;;;5036860;28;20561;-68
2023/01/30 03:07:23;;;;;;;16.10;6.43;;;7.20;99.90;;;;;;5055431;28;20037;-69
2023/01/30 03:10:04;;;;;;;20.23;7.65;;;7.20;99.90;;;;;;5048101;28;20095;-68
2023/01/30 03:12:36;;;;;;;23.15;5.15;;;7.20;99.90;;;;;;5053094;28;20442;-68
2023/01/30 03:15:37;;;;;;;21.38;5.10;;;7.20;99.90;;;;;;5037064;28;20087;-68
2023/01/30 03:18:04;;;;;;;21.77;4.72;;;7.10;99.90;;;;;;5050967;28;20475;-68
2023/01/30 03:20:30;;;;;;;16.75;5.03;;;7.10;99.90;;;;;;5053330;28;20067;-67
2023/01/30 03:22:56;;;;;;;20.13;5.90;;;7.10;99.90;;;;;;5053950;28;20432;-68
2023/01/30 03:25:25;;;;;;;19.02;5.45;;;7.00;99.90;;;;;;5053181;28;20037;-68
2023/01/30 03:27:53;;;;;;;18.80;5.05;;;7.00;99.90;;;;;;5054448;28;20098;-68
2023/01/30 03:30:19;;;;;;;16.05;5.10;;;6.90;99.90;;;;;;5054804;28;20037;-67
2023/01/30 03:32:44;;;;;;;18.75;4.75;;;6.90;99.90;;;;;;5053697;28;20489;-67
2023/01/30 03:35:11;;;;;;;14.40;4.65;;;6.90;99.90;;;;;;5053708;28;20124;-68
2023/01/30 03:37:37;;;;;;;13.85;5.63;;;6.90;99.90;;;;;;5054021;28;20489;-68
2023/01/30 03:40:04;;;;;;;19.55;5.72;;;6.80;99.90;;;;;;5052748;28;20045;-68
2023/01/30 03:42:30;;;;;;;18.75;5.93;;;6.80;99.90;;;;;;5036470;28;20543;-68
2023/01/30 03:44:55;;;;;;;18.63;5.60;;;6.80;99.90;;;;;;5053100;28;20036;-68
2023/01/30 03:47:21;;;;;;;27.17;6.45;;;6.80;99.90;;;;;;5035922;28;20090;-68
2023/01/30 03:49:47;;;;;;;30.60;6.55;;;6.80;99.90;;;;;;5053098;28;20045;-69
2023/01/30 03:52:12;;;;;;;25.92;7.38;;;6.80;99.90;;;;;;5054637;28;20074;-69
2023/01/30 03:54:38;;;;;;;18.52;5.40;;;6.80;99.90;;;;;;5052034;28;20081;-67
2023/01/30 03:57:04;;;;;;;20.73;6.13;;;6.70;99.90;;;;;;5034727;28;20040;-68
2023/01/30 03:59:29;;;;;;;26.75;5.80;;;6.70;99.90;;;;;;5033869;28;20075;-68
2023/01/30 04:01:56;;;;;;;23.73;5.82;;;6.70;99.90;;;;;;5032496;28;20034;-68
2023/01/30 04:04:22;;;;;;;25.50;5.88;;;6.60;99.90;;;;;;5033302;28;20041;-69
2023/01/30 04:06:48;;;;;;;25.10;6.63;;;6.60;99.90;;;;;;5016259;28;20456;-69
2023/01/30 04:09:13;;;;;;;25.88;6.78;;;6.60;99.90;;;;;;5033576;28;20080;-69
2023/01/30 04:11:39;;;;;;;17.80;6.90;;;6.60;99.90;;;;;;5032501;28;20393;-69
2023/01/30 04:14:05;;;;;;;18.40;5.07;;;6.60;99.90;;;;;;5032128;28;20095;-68
2023/01/30 04:16:30;;;;;;;21.63;5.20;;;6.60;99.90;;;;;;5032612;28;20037;-69
2023/01/30 04:18:56;;;;;;;16.00;5.05;;;6.50;99.90;;;;;;5034179;28;20044;-69
2023/01/30 04:21:22;;;;;;;15.18;5.63;;;6.50;99.90;;;;;;5032385;28;20037;-68
2023/01/30 04:23:47;;;;;;;15.30;4.63;;;6.50;99.90;;;;;;5033420;28;20038;-69
2023/01/30 04:26:13;;;;;;;13.38;4.72;;;6.60;99.90;;;;;;5032753;28;20044;-69
2023/01/30 04:28:40;;;;;;;22.42;5.43;;;6.60;99.90;;;;;;5014843;28;20041;-69
2023/01/30 04:31:06;;;;;;;11.35;4.72;;;6.50;99.90;;;;;;5034116;28;20077;-69
2023/01/30 04:33:35;;;;;;;16.70;4.30;;;6.50;99.90;;;;;;5015512;28;20070;-70
2023/01/30 04:36:03;;;;;;;18.08;5.03;;;6.40;99.90;;;;;;5031916;28;20030;-69
2023/01/30 04:38:30;;;;;;;18.10;4.38;;;6.30;99.90;;;;;;5015368;28;20060;-70
2023/01/30 04:40:57;;;;;;;19.55;4.53;;;6.20;99.90;;;;;;5032638;28;20052;-69
2023/01/30 04:43:24;;;;;;;17.02;4.38;;;6.10;99.90;;;;;;5033083;28;20402;-70
2023/01/30 04:45:50;;;;;;;18.77;3.97;;;6.10;99.90;;;;;;5033133;28;20046;-70
2023/01/30 04:48:17;;;;;;;15.45;4.50;;;6.10;99.90;;;;;;5032745;28;20483;-69
2023/01/30 04:50:46;;;;;;;20.85;4.80;;;6.10;99.90;;;;;;5033730;28;20044;-69
2023/01/30 04:53:12;;;;;;;16.67;4.50;;;6.20;99.90;;;;;;5052156;28;20052;-70
2023/01/30 04:55:38;;;;;;;16.95;4.35;;;6.20;99.90;;;;;;5052633;28;20067;-71
2023/01/30 04:58:03;;;;;;;20.55;4.78;;;6.20;99.90;;;;;;5051252;28;20045;-70
2023/01/30 05:00:29;;;;;;;24.77;5.25;;;6.20;99.90;;;;;;5032322;28;20045;-70
2023/01/30 05:02:55;;;;;;;19.58;5.18;;;6.30;99.90;;;;;;5032343;28;20037;-70
2023/01/30 05:05:24;;;;;;;16.88;4.45;;;6.30;99.90;;;;;;5015171;28;20037;-71
2023/01/30 05:07:50;;;;;;;22.60;4.90;;;6.30;99.90;;;;;;5032810;28;20044;-70
2023/01/30 05:10:16;;;;;;;28.75;5.53;;;6.30;99.90;;;;;;5032470;28;20424;-69
2023/01/30 05:12:42;;;;;;;17.65;4.35;;;6.30;99.90;;;;;;5014917;28;20045;-69
2023/01/30 05:15:10;;;;;;;24.33;5.90;;;6.30;99.90;;;;;;5031671;28;20045;-69
2023/01/30 05:17:36;;;;;;;27.90;4.80;;;6.20;99.90;;;;;;5014340;28;20184;-71
2023/01/30 05:20:02;;;;;;;16.00;4.90;;;6.20;99.90;;;;;;5031423;28;20525;-70
2023/01/30 05:22:27;;;;;;;15.70;4.63;;;6.10;99.90;;;;;;5032282;28;20042;-70
2023/01/30 05:24:53;;;;;;;19.33;5.03;;;6.10;99.90;;;;;;5032041;28;20056;-70
2023/01/30 05:27:19;;;;;;;20.60;4.30;;;6.00;99.90;;;;;;5031872;28;20048;-69
2023/01/30 05:29:44;;;;;;;14.50;3.88;;;6.00;99.90;;;;;;5030843;28;20053;-69
2023/01/30 05:32:14;;;;;;;12.40;4.32;;;6.00;99.90;;;;;;5030856;28;20045;-71
2023/01/30 05:34:40;;;;;;;20.45;4.65;;;6.00;99.90;;;;;;5030775;28;20099;-71
2023/01/30 05:37:06;;;;;;;17.20;5.25;;;6.00;99.90;;;;;;5031425;28;20434;-70
2023/01/30 05:39:32;;;;;;;15.80;4.20;;;6.00;99.90;;;;;;5031223;28;20464;-70
2023/01/30 05:41:58;;;;;;;17.65;5.25;;;6.10;99.90;;;;;;5032643;28;20046;-69
2023/01/30 05:44:23;;;;;;;22.08;5.53;;;6.20;99.90;;;;;;5031476;28;20060;-70
2023/01/30 05:46:49;;;;;;;18.83;4.40;;;6.20;99.90;;;;;;5013853;28;20175;-71
2023/01/30 05:49:15;;;;;;;21.77;4.68;;;6.20;99.90;;;;;;5014964;28;20379;-69
2023/01/30 05:51:40;;;;;;;16.40;4.63;;;6.20;99.90;;;;;;5031799;28;20048;-69
2023/01/30 05:54:06;;;;;;;18.27;4.72;;;6.20;99.90;;;;;;5030571;28;20048;-70
2023/01/30 05:56:32;;;;;;;20.95;5.00;;;6.20;99.90;;;;;;5030616;28;20473;-71
2023/01/30 05:58:59;;;;;;;19.77;5.13;;;6.30;99.90;;;;;;5031123;28;20033;-70
2023/01/30 06:01:26;;;;;;;25.20;5.18;;;6.30;99.90;;;;;;5032775;28;20033;-69
2023/01/30 06:03:52;;;;;;;18.98;5.32;;;6.40;99.90;;;;;;5050974;28;20045;-71
2023/01/30 06:06:18;;;;;;;19.23;4.88;;;6.40;99.90;;;;;;5051846;28;20037;-73
2023/01/30 06:08:44;;;;;;;29.30;5.13;;;6.40;99.90;;;;;;5050834;28;20044;-70
2023/01/30 06:11:16;;;;;;;21.27;4.30;;;6.40;99.90;;;;;;5052496;28;20036;-69
2023/01/30 06:13:42;;;;;;;20.02;4.65;;;6.40;99.90;;;;;;5032785;28;20037;-70
2023/01/30 06:16:13;;;;;;;23.23;6.40;;;6.30;99.90;;;;;;5050679;28;20037;-71
2023/01/30 06:18:39;;;;;;;18.98;4.65;;;6.40;99.90;;;;;;5051480;28;20097;-69
2023/01/30 06:21:05;;;;;;;19.75;5.05;;;6.40;99.90;;;;;;5051236;28;20120;-69
2023/01/30 06:23:31;;;;;;;25.55;5.43;;;6.40;99.90;;;;;;5051659;28;20037;-71
2023/01/30 06:25:57;;;;;;;16.85;4.13;;;6.40;99.90;;;;;;5050129;28;20028;-70
2023/01/30 06:28:23;;;;;;;28.58;6.53;;;6.40;99.90;;;;;;5049644;28;20033;-69
2023/01/30 06:30:49;;;;;;;25.98;6.90;;;6.50;99.90;;;;;;5051610;28;20041;-70
2023/01/30 06:33:15;;;;;;;24.75;5.97;;;6.50;99.90;;;;;;5037551;28;20040;-70
2023/01/30 06:35:41;;;;;;;17.08;4.65;;;6.50;99.90;;;;;;5054690;28;20052;-70
2023/01/30 06:38:12;;;;;;;18.35;4.60;;;6.50;99.90;;;;;;5054817;28;20080;-70
2023/01/30 06:40:39;;;;;;;17.75;4.70;;;6.50;99.90;;;;;;5054353;28;20048;-70
2023/01/30 06:43:05;;;;;;;22.88;5.78;;;6.50;99.90;;;;;;5037190;28;20029;-70
2023/01/30 06:45:31;;;;;;;17.35;4.80;;;6.50;99.90;;;;;;5054501;28;20505;-69
2023/01/30 06:47:57;;;;;;;18.92;5.20;;;6.50;99.90;;;;;;5054483;28;20569;-70
2023/01/30 06:50:24;;;;;;;22.73;5.65;;;6.50;99.90;;;;;;5054031;28;20037;-71
2023/01/30 06:52:51;;;;;;;28.63;5.45;;;6.40;99.90;;;;;;5055345;28;20508;-69
2023/01/30 06:55:19;;;;;;;19.00;4.43;;;6.40;99.90;;;;;;5037644;28;20041;-69
2023/01/30 06:57:45;;;;;;;22.55;5.60;;;6.40;99.90;;;;;;5054037;28;20040;-69
2023/01/30 07:00:17;;;;;;;18.85;5.13;;;6.40;99.90;;;;;;5054117;28;20037;-69
2023/01/30 07:02:42;;;;;;;19.30;4.05;;;6.40;99.90;;;;;;5053968;28;20464;-71
2023/01/30 07:05:09;;;;;;;17.45;4.75;;;6.50;99.90;;;;;;5036840;28;20129;-71
2023/01/30 07:07:36;;;;;;;24.17;5.47;;;6.50;99.90;;;;;;5055000;28;20052;-70
2023/01/30 07:10:04;;;;;;;18.45;6.03;;;6.50;99.90;;;;;;5036588;28;20556;-70
2023/01/30 07:12:29;;;;;;;21.52;5.68;;;6.50;99.90;;;;;;5053526;28;20497;-75
2023/01/30 07:14:55;;;;;;;18.80;5.15;;;6.60;99.90;;;;;;5054958;28;20041;-72
2023/01/30 07:17:21;;;;;;;21.85;4.65;;;6.50;99.90;;;;;;5036802;28;20036;-72
2023/01/30 07:19:48;;;;;;;27.05;6.22;;;6.50;99.90;;;;;;5053545;28;20095;-70
2023/01/30 07:22:14;;;;;;;24.80;5.55;;;6.50;99.90;;;;;;5037424;28;20048;-71
2023/01/30 07:24:41;;;;;;;18.77;5.18;;;6.50;99.90;;;;;;5053573;28;20401;-71
2023/01/30 07:27:09;;;;;;;22.55;6.15;;;6.40;99.90;;;;;;5042186;28;20052;-71
2023/01/30 07:29:35;;;;;;;19.77;5.00;;;6.40;99.90;;;;;;5073831;28;20048;-70
2023/01/30 07:32:02;;;;;;;12.98;4.22;;;6.50;99.90;;;;;;5045636;28;20069;-71
2023/01/30 07:34:28;;;;;;;21.35;5.50;;;6.50;99.90;;;;;;5038520;28;20068;-71
2023/01/30 07:36:53;;;;;;;24.33;5.00;;;6.50;99.90;;;;;;5031946;28;20478;-70
2023/01/30 07:39:19;;;;;;;21.33;5.95;;;6.50;99.90;;;;;;5028970;28;20057;-70
2023/01/30 07:41:45;;;;;;;19.88;4.78;;;6.50;99.90;;;;;;5029688;28;20045;-72
2023/01/30 07:44:12;;;;;;;19.90;6.03;;;6.60;99.90;;;;;;5038529;28;20068;-70
2023/01/30 07:46:37;;;;;;;23.52;6.88;;;6.60;99.90;;;;;;5050422;28;20037;-70
2023/01/30 07:49:04;;;;;;;21.35;4.55;;;6.60;99.90;;;;;;5044607;28;20200;-71
2023/01/30 07:51:30;;;;;;;19.95;4.63;;;6.60;99.90;;;;;;5029626;28;20136;-72
2023/01/30 07:53:56;;;;;;;17.15;5.03;;;6.70;99.90;;;;;;5029718;28;20049;-70
2023/01/30 07:56:22;;;;;;;21.52;5.57;;;6.70;99.90;;;;;;5039433;28;20131;-70
2023/01/30 07:58:49;;;;;;;19.08;5.57;;;6.70;99.90;;;;;;5029207;28;20052;-69
2023/01/30 08:01:15;;;;;;;17.23;4.55;;;6.60;99.90;;;;;;5040015;28;20037;-71
2023/01/30 08:03:42;;;;;;;25.88;5.65;;;6.70;99.90;;;;;;5029542;28;20048;-70
2023/01/30 08:06:08;;;;;;;24.55;5.60;;;6.70;99.90;;;;;;5037902;28;20049;-71
2023/01/30 08:08:34;;;;;;;21.58;6.45;;;6.60;99.90;;;;;;5029332;28;20041;-71
2023/01/30 08:11:00;;;;;;;23.77;6.32;;;6.60;99.90;;;;;;5037887;28;20458;-70
2023/01/30 08:13:25;;;;;;;25.58;6.90;;;6.60;99.90;;;;;;5015436;28;20041;-69
2023/01/30 08:15:51;;;;;;;36.50;6.75;;;6.60;99.90;;;;;;5029920;28;20551;-70
2023/01/30 08:18:17;;;;;;;25.67;5.97;;;6.60;99.90;;;;;;5042190;28;20040;-71
2023/01/30 08:20:43;;;;;;;23.98;5.40;;;6.60;99.90;;;;;;5011861;28;20033;-71
2023/01/30 08:23:09;;;;;;;16.05;4.68;;;6.60;99.90;;;;;;5044572;28;20107;-73
2023/01/30 08:25:35;;;;;;;16.50;5.38;;;6.70;99.90;;;;;;5048559;28;20033;-71
2023/01/30 08:28:02;;;;;;;15.07;4.82;;;6.70;99.90;;;;;;5039303;28;20124;-71
2023/01/30 08:30:29;;;;;;;20.63;5.32;;;6.80;99.90;;;;;;5035468;28;20042;-71
2023/01/30 08:32:55;;;;;;;23.13;4.68;;;6.80;99.90;;;;;;5030808;28;20045;-75
2023/01/30 08:35:21;;;;;;;21.75;4.90;;;6.80;99.90;;;;;;5048971;28;20036;-73
2023/01/30 08:37:46;;;;;;;27.90;6.37;;;6.70;99.90;;;;;;5015302;28;1101804;-72
2023/01/30 08:40:12;;;;;;;22.00;6.80;;;6.70;99.90;;;;;;5058120;28;20515;-73
2023/01/30 08:42:38;;;;;;;27.40;5.32;;;6.70;99.90;;;;;;5046604;28;20529;-73
2023/01/30 08:45:04;;;;;;;24.88;5.63;;;6.80;99.90;;;;;;5050650;28;20126;-72
2023/01/30 08:47:31;;;;;;;29.13;5.93;;;6.90;99.90;;;;;;5037276;28;20398;-73
2023/01/30 08:49:56;;;;;;;21.83;5.50;;;6.90;99.90;;;;;;5012485;28;20037;-71
2023/01/30 08:52:22;;;;;;;19.13;5.20;;;6.90;99.90;;;;;;5042604;28;20048;-71
2023/01/30 08:54:48;;;;;;;21.23;4.75;;;6.90;99.90;;;;;;5039121;28;20037;-72
2023/01/30 08:57:14;;;;;;;18.95;5.20;;;6.90;99.90;;;;;;5049130;28;20029;-71
2023/01/30 08:59:40;;;;;;;32.25;5.38;;;6.90;99.90;;;;;;5017642;28;20047;-72
2023/01/30 09:02:11;;;;;;;25.42;6.82;;;6.90;99.90;;;;;;5040358;28;20041;-71
2023/01/30 09:04:37;;;;;;;24.98;6.55;;;6.90;99.90;;;;;;5028688;28;20191;-73
2023/01/30 09:07:03;;;;;;;16.00;5.38;;;6.90;99.90;;;;;;5039969;28;20139;-72
2023/01/30 09:09:29;;;;;;;19.75;5.53;;;7.00;99.90;;;;;;5059478;28;20413;-71
2023/01/30 09:11:55;;;;;;;18.55;8.50;;;7.00;99.90;;;;;;5031062;28;20567;-71
2023/01/30 09:14:21;;;;;;;31.95;7.65;;;7.10;99.90;;;;;;5036841;28;20536;-72
2023/01/30 09:16:54;;;;;;;21.70;9.35;;;7.10;99.90;;;;;;5031219;28;20055;-72
2023/01/30 09:19:20;;;;;;;26.65;7.60;;;7.10;99.90;;;;;;5038666;28;20163;-71
2023/01/30 09:21:48;;;;;;;28.13;14.02;;;7.10;99.90;;;;;;5030777;28;20041;-71
2023/01/30 09:24:14;;;;;;;25.63;6.43;;;7.10;99.90;;;;;;5038977;28;20056;-70
2023/01/30 09:26:43;;;;;;;22.23;5.97;;;7.10;99.90;;;;;;5030009;28;20056;-71
2023/01/30 09:29:10;;;;;;;22.35;6.32;;;7.10;99.90;;;;;;5013067;28;20166;-72
2023/01/30 09:31:35;;;;;;;25.80;8.48;;;7.20;99.90;;;;;;5028312;28;20045;-71
2023/01/30 09:34:01;;;;;;;22.40;5.85;;;7.20;99.90;;;;;;5041961;28;20128;-71
2023/01/30 09:36:27;;;;;;;22.52;5.88;;;7.20;99.90;;;;;;5029984;28;20128;-71
2023/01/30 09:38:52;;;;;;;23.08;5.43;;;7.10;99.90;;;;;;5029483;28;20049;-72
2023/01/30 09:41:30;;;;;;;23.13;5.78;;;7.20;99.90;;;;;;5029207;28;20401;-72
2023/01/30 09:44:10;;;;;;;17.20;5.90;;;7.20;99.90;;;;;;5020080;28;20048;-73
2023/01/30 09:47:07;;;;;;;16.42;5.15;;;7.20;99.90;;;;;;5011585;28;20052;-74
2023/01/30 09:50:00;;;;;;;19.35;6.13;;;7.30;99.90;;;;;;5012234;28;20163;-71
2023/01/30 09:52:38;;;;;;;19.48;4.95;;;7.30;99.90;;;;;;5032748;28;20048;-72
2023/01/30 09:55:22;;;;;;;19.40;5.35;;;7.20;99.90;;;;;;5022720;28;20083;-70
2023/01/30 09:57:50;;;;;;;24.67;6.83;;;7.30;99.90;;;;;;5045981;28;20041;-72
2023/01/30 10:00:36;;;;;;;22.42;6.85;;;7.40;99.90;;;;;;5011360;28;20087;-71
2023/01/30 10:03:17;;;;;;;18.08;5.15;;;7.50;99.90;;;;;;5028772;28;20398;-70
2023/01/30 10:05:55;;;;;;;22.13;6.80;;;7.60;99.90;;;;;;5044266;28;20107;-71
2023/01/30 10:08:50;;;;;;;16.20;5.85;;;7.70;99.90;;;;;;5031339;28;20478;-71
2023/01/30 10:11:47;;;;;;;26.17;6.50;;;7.80;99.90;;;;;;5038889;28;20059;-70
2023/01/30 10:14:50;;;;;;;29.10;7.82;;;7.80;99.90;;;;;;5045743;28;20473;-71
2023/01/30 10:17:54;;;;;;;13.43;3.05;;;7.80;99.90;;;;;;5037075;28;20044;-71
2023/01/30 10:20:39;;;;;;;16.42;3.03;;;7.40;99.90;;;;;;5006181;28;20238;-72
2023/01/30 10:23:35;;;;;;;15.48;3.30;;;6.70;99.90;;;;;;5035014;28;20030;-71
2023/01/30 10:26:12;;;;;;;12.40;2.58;;;6.20;99.90;;;;;;5035569;28;20041;-72
2023/01/30 10:28:43;;;;;;;11.63;2.95;;;5.90;99.90;;;;;;5039800;28;20124;-74
2023/01/30 10:31:13;;;;;;;11.00;2.70;;;5.70;99.90;;;;;;5028901;28;20041;-73
2023/01/30 10:34:11;;;;;;;10.63;2.30;;;5.60;99.90;;;;;;5011629;28;20054;-75
2023/01/30 10:36:51;;;;;;;14.75;4.18;;;5.50;99.90;;;;;;5019679;28;20430;-75
2023/01/30 10:39:30;;;;;;;15.02;3.63;;;5.50;99.90;;;;;;5048151;28;20048;-75
2023/01/30 10:42:18;;;;;;;28.15;4.68;;;5.50;99.90;;;;;;5049000;28;20044;-75
2023/01/30 10:44:46;;;;;;;24.40;5.38;;;5.70;99.90;;;;;;5049394;28;20045;-74
2023/01/30 10:47:25;;;;;;;21.90;5.05;;;5.80;99.90;;;;;;5049117;28;20049;-75
2023/01/30 10:49:59;;;;;;;18.52;4.65;;;6.00;99.90;;;;;;5027048;28;20127;-76
2023/01/30 10:52:40;;;;;;;16.63;3.97;;;6.20;99.90;;;;;;5050355;28;20103;-77
2023/01/30 10:55:33;;;;;;;11.13;2.72;;;6.40;99.90;;;;;;5010243;28;20045;-74
2023/01/30 10:58:04;;;;;;;8.38;2.50;;;6.50;99.90;;;;;;5028072;28;20041;-74
2023/01/30 11:00:39;;;;;;;16.35;2.33;;;6.70;99.90;;;;;;5047502;28;20103;-73
2023/01/30 11:03:21;;;;;;;17.02;2.63;;;6.70;99.90;;;;;;5049757;28;20044;-74
2023/01/30 11:05:52;;;;;;;10.85;2.90;;;6.80;99.90;;;;;;5043136;28;20063;-74
2023/01/30 11:08:29;;;;;;;12.43;4.40;;;6.80;99.90;;;;;;5048215;28;20086;-74
2023/01/30 11:10:56;;;;;;;17.13;3.72;;;7.00;99.90;;;;;;5047770;28;20067;-75
2023/01/30 11:13:29;;;;;;;15.43;4.55;;;7.10;99.90;;;;;;5048602;28;20047;-74
2023/01/30 11:16:01;;;;;;;15.95;4.80;;;7.10;99.90;;;;;;5039642;28;20115;-73
2023/01/30 11:18:27;;;;;;;9.43;2.50;;;7.10;99.90;;;;;;5030113;28;20057;-74
2023/01/30 11:21:06;;;;;;;10.27;2.40;;;6.90;99.90;;;;;;5035268;28;20037;-75
2023/01/30 11:23:40;;;;;;;8.57;3.10;;;6.70;99.90;;;;;;5032785;28;20043;-74
2023/01/30 11:26:15;;;;;;;4.47;1.53;;;6.60;99.90;;;;;;5032304;28;20048;-75
2023/01/30 11:28:44;;;;;;;10.57;2.72;;;6.60;99.90;;;;;;5033880;28;20284;-74
2023/01/30 11:31:23;;;;;;;16.42;3.13;;;6.50;99.90;;;;;;5031200;28;20107;-74
2023/01/30 11:34:17;;;;;;;7.60;2.47;;;6.50;99.90;;;;;;5031197;28;20076;-74
2023/01/30 11:36:46;;;;;;;11.77;2.80;;;6.60;99.90;;;;;;5031972;28;20486;-73
2023/01/30 11:39:11;;;;;;;14.18;2.72;;;6.60;99.90;;;;;;5034702;28;20080;-73
2023/01/30 11:41:41;;;;;;;11.80;3.00;;;6.70;99.90;;;;;;5050823;28;20791;-74
2023/01/30 11:44:08;;;;;;;8.45;2.95;;;6.90;99.90;;;;;;5050356;28;20041;-74
2023/01/30 11:46:37;;;;;;;14.75;3.55;;;6.90;99.90;;;;;;5042793;28;20072;-74
2023/01/30 11:49:14;;;;;;;17.63;6.75;;;7.10;99.90;;;;;;5034532;28;20041;-75
2023/01/30 11:51:43;;;;;;;13.30;3.65;;;7.20;99.90;;;;;;5051012;28;20048;-77
2023/01/30 11:54:17;;;;;;;12.20;2.97;;;7.30;99.90;;;;;;5050097;28;20053;-78
2023/01/30 11:56:51;;;;;;;16.02;3.85;;;7.40;99.90;;;;;;5033469;28;20088;-77
2023/01/30 11:59:23;;;;;;;15.38;4.15;;;7.40;99.90;;;;;;5033126;28;20037;-77
2023/01/30 12:01:49;;;;;;;17.77;3.95;;;7.50;99.90;;;;;;5033273;28;20383;-75
2023/01/30 12:04:15;;;;;;;21.52;5.57;;;7.60;99.90;;;;;;5033986;28;20136;-75
2023/01/30 12:06:42;;;;;;;15.40;3.88;;;7.60;99.90;;;;;;5042671;28;20072;-77
2023/01/30 12:09:33;;;;;;;23.90;4.82;;;7.60;99.90;;;;;;5017282;28;20095;-78
2023/01/30 12:11:58;;;;;;;13.82;3.55;;;7.60;99.90;;;;;;5032496;28;20049;-78
2023/01/30 12:14:36;;;;;;;16.08;3.70;;;7.60;99.90;;;;;;5052564;28;20124;-79
2023/01/30 12:17:35;;;;;;;13.32;4.20;;;7.70;99.90;;;;;;5049192;28;20032;-73
2023/01/30 12:20:04;;;;;;;15.82;4.00;;;7.70;99.90;;;;;;5039842;28;20045;-77
2023/01/30 12:22:49;;;;;;;20.17;4.53;;;7.70;99.90;;;;;;5032575;28;20077;-71
2023/01/30 12:25:24;;;;;;;23.10;5.47;;;7.60;99.90;;;;;;5032862;28;20052;-74
2023/01/30 12:28:01;;;;;;;21.63;4.78;;;7.60;99.90;;;;;;5033797;28;20060;-73
2023/01/30 12:30:33;;;;;;;15.20;3.35;;;7.60;99.90;;;;;;5015003;28;20540;-76
2023/01/30 12:33:01;;;;;;;13.98;4.25;;;7.60;99.90;;;;;;5049444;28;20071;-77
2023/01/30 12:35:51;;;;;;;19.83;3.92;;;7.60;99.90;;;;;;5045344;28;20030;-74
2023/01/30 12:38:38;;;;;;;19.10;4.47;;;7.70;99.90;;;;;;5046147;28;20088;-76
2023/01/30 12:41:27;;;;;;;24.73;6.40;;;7.60;99.90;;;;;;5032581;28;20384;-75
2023/01/30 12:44:05;;;;;;;18.58;5.53;;;7.70;99.90;;;;;;5016022;28;20052;-75
2023/01/30 12:46:54;;;;;;;23.67;4.55;;;7.60;99.90;;;;;;5033197;28;20493;-74
2023/01/30 12:49:57;;;;;;;20.17;7.25;;;7.60;99.90;;;;;;5031964;28;20037;-75
2023/01/30 12:52:50;;;;;;;13.57;4.63;;;7.60;99.90;;;;;;5032546;28;20044;-75
2023/01/30 12:55:39;;;;;;;17.90;4.90;;;7.60;99.90;;;;;;5034866;28;20041;-74
2023/01/30 12:58:28;;;;;;;20.88;4.93;;;7.70;99.90;;;;;;5052507;28;20055;-75
2023/01/30 13:01:14;;;;;;;20.23;4.80;;;7.70;99.90;;;;;;5053634;28;20033;-74
2023/01/30 13:03:57;;;;;;;27.15;7.28;;;7.70;99.90;;;;;;5025505;28;20045;-75
2023/01/30 13:06:37;;;;;;;20.23;5.95;;;7.70;99.90;;;;;;5052201;28;20036;-75
2023/01/30 13:09:08;;;;;;;16.88;4.65;;;7.80;99.90;;;;;;5050803;28;20044;-75
2023/01/30 13:12:06;;;;;;;32.35;7.43;;;7.80;99.90;;;;;;5052698;28;20496;-76
2023/01/30 13:14:45;;;;;;;28.15;6.28;;;7.80;99.90;;;;;;5034666;28;20567;-76